sensor_id;sensor_type;location;lat;lon;timestamp;temperature;humidity
46217;DHT22;47258;59.424;13.482;2023-04-24T00:01:56;8.10;99.90
46217;DHT22;47258;59.424;13.482;2023-04-24T00:04:23;8.10;99.90
46217;DHT22;47258;59.424;13.482;2023-04-24T00:06:51;8.10;99.90
46217;DHT22;47258;59.424;13.482;2023-04-24T00:09:19;8.00;99.90
46217;DHT22;47258;59.424;13.482;2023-04-24T00:11:46;8.00;99.90
46217;DHT22;47258;59.424;13.482;2023-04-24T00:14:13;8.00;99.90
46217;DHT22;47258;59.424;13.482;2023-04-24T00:16:40;8.00;99.90
46217;DHT22;47258;59.424;13.482;2023-04-24T00:19:08;7.90;99.90
46217;DHT22;47258;59.424;13.482;2023-04-24T00:21:36;7.90;99.90
46217;DHT22;47258;59.424;13.482;2023-04-24T00:24:03;7.80;99.90
46217;DHT22;47258;59.424;13.482;2023-04-24T00:26:30;7.80;99.90
46217;DHT22;47258;59.424;13.482;2023-04-24T00:28:57;7.80;99.90
46217;DHT22;47258;59.424;13.482;2023-04-24T00:31:23;7.70;99.90
46217;DHT22;47258;59.424;13.482;2023-04-24T00:33:50;7.70;99.90
46217;DHT22;47258;59.424;13.482;2023-04-24T00:36:18;7.60;99.90
46217;DHT22;47258;59.424;13.482;2023-04-24T00:38:46;7.60;99.90
46217;DHT22;47258;59.424;13.482;2023-04-24T00:41:12;7.50;99.90
46217;DHT22;47258;59.424;13.482;2023-04-24T00:43:39;7.50;99.90
46217;DHT22;47258;59.424;13.482;2023-04-24T00:46:06;7.40;99.90
46217;DHT22;47258;59.424;13.482;2023-04-24T00:48:33;7.30;99.90
46217;DHT22;47258;59.424;13.482;2023-04-24T00:51:00;7.30;99.90
46217;DHT22;47258;59.424;13.482;2023-04-24T00:53:29;7.30;99.90
46217;DHT22;47258;59.424;13.482;2023-04-24T00:55:56;7.30;99.90
46217;DHT22;47258;59.424;13.482;2023-04-24T00:58:24;7.20;99.90
46217;DHT22;47258;59.424;13.482;2023-04-24T01:00:51;7.20;99.90
46217;DHT22;47258;59.424;13.482;2023-04-24T01:03:24;7.20;99.90
46217;DHT22;47258;59.424;13.482;2023-04-24T01:05:53;7.10;99.90
46217;DHT22;47258;59.424;13.482;2023-04-24T01:08:22;7.10;99.90
46217;DHT22;47258;59.424;13.482;2023-04-24T01:10:52;7.00;99.90
46217;DHT22;47258;59.424;13.482;2023-04-24T01:13:22;7.00;99.90
46217;DHT22;47258;59.424;13.482;2023-04-24T01:15:50;7.00;99.90
46217;DHT22;47258;59.424;13.482;2023-04-24T01:18:17;7.00;99.90
46217;DHT22;47258;59.424;13.482;2023-04-24T01:20:49;7.00;99.90
46217;DHT22;47258;59.424;13.482;2023-04-24T01:23:25;6.90;99.90
46217;DHT22;47258;59.424;13.482;2023-04-24T01:25:53;6.90;99.90
46217;DHT22;47258;59.424;13.482;2023-04-24T01:28:21;6.90;99.90
46217;DHT22;47258;59.424;13.482;2023-04-24T01:30:48;6.90;99.90
46217;DHT22;47258;59.424;13.482;2023-04-24T01:33:17;6.90;99.90
46217;DHT22;47258;59.424;13.482;2023-04-24T01:35:47;6.90;99.90
46217;DHT22;47258;59.424;13.482;2023-04-24T01:38:18;6.90;99.90
46217;DHT22;47258;59.424;13.482;2023-04-24T01:40:49;6.90;99.90
46217;DHT22;47258;59.424;13.482;2023-04-24T01:43:19;6.90;99.90
46217;DHT22;47258;59.424;13.482;2023-04-24T01:45:49;6.80;99.90
46217;DHT22;47258;59.424;13.482;2023-04-24T01:48:17;6.80;99.90
46217;DHT22;47258;59.424;13.482;2023-04-24T01:50:45;6.90;99.90
46217;DHT22;47258;59.424;13.482;2023-04-24T01:53:12;6.80;99.90
46217;DHT22;47258;59.424;13.482;2023-04-24T01:55:40;6.80;99.90
46217;DHT22;47258;59.424;13.482;2023-04-24T01:58:11;6.80;99.90
46217;DHT22;47258;59.424;13.482;2023-04-24T02:00:42;6.80;99.90
46217;DHT22;47258;59.424;13.482;2023-04-24T02:03:11;6.80;99.90
46217;DHT22;47258;59.424;13.482;2023-04-24T02:05:40;6.80;99.90
46217;DHT22;47258;59.424;13.482;2023-04-24T02:08:13;6.80;99.90
46217;DHT22;47258;59.424;13.482;2023-04-24T02:10:41;6.80;99.90
46217;DHT22;47258;59.424;13.482;2023-04-24T02:13:11;6.80;99.90
46217;DHT22;47258;59.424;13.482;2023-04-24T02:15:39;6.80;99.90
46217;DHT22;47258;59.424;13.482;2023-04-24T02:18:07;6.80;99.90
46217;DHT22;47258;59.424;13.482;2023-04-24T02:20:37;6.80;99.90
46217;DHT22;47258;59.424;13.482;2023-04-24T02:23:06;6.80;99.90
46217;DHT22;47258;59.424;13.482;2023-04-24T02:25:35;6.80;99.90
46217;DHT22;47258;59.424;13.482;2023-04-24T02:28:02;6.80;99.90
46217;DHT22;47258;59.424;13.482;2023-04-24T02:30:31;6.80;99.90
46217;DHT22;47258;59.424;13.482;2023-04-24T02:33:02;6.80;99.90
46217;DHT22;47258;59.424;13.482;2023-04-24T02:35:31;6.80;99.90
46217;DHT22;47258;59.424;13.482;2023-04-24T02:37:59;6.80;99.90
46217;DHT22;47258;59.424;13.482;2023-04-24T02:40:29;6.80;99.90
46217;DHT22;47258;59.424;13.482;2023-04-24T02:42:57;6.80;99.90
46217;DHT22;47258;59.424;13.482;2023-04-24T02:45:27;6.80;99.90
46217;DHT22;47258;59.424;13.482;2023-04-24T02:47:56;6.80;99.90
46217;DHT22;47258;59.424;13.482;2023-04-24T02:50:26;6.80;99.90
46217;DHT22;47258;59.424;13.482;2023-04-24T02:52:53;6.80;99.90
46217;DHT22;47258;59.424;13.482;2023-04-24T02:55:21;6.80;99.90
46217;DHT22;47258;59.424;13.482;2023-04-24T02:57:48;6.80;99.90
46217;DHT22;47258;59.424;13.482;2023-04-24T03:00:16;6.80;99.90
46217;DHT22;47258;59.424;13.482;2023-04-24T03:02:43;6.80;99.90
46217;DHT22;47258;59.424;13.482;2023-04-24T03:05:13;6.80;99.90
46217;DHT22;47258;59.424;13.482;2023-04-24T03:07:42;6.80;99.90
46217;DHT22;47258;59.424;13.482;2023-04-24T03:10:13;6.80;99.90
46217;DHT22;47258;59.424;13.482;2023-04-24T03:12:41;6.70;99.90
46217;DHT22;47258;59.424;13.482;2023-04-24T03:15:09;6.70;99.90
46217;DHT22;47258;59.424;13.482;2023-04-24T03:17:37;6.70;99.90
46217;DHT22;47258;59.424;13.482;2023-04-24T03:20:05;6.70;99.90
46217;DHT22;47258;59.424;13.482;2023-04-24T03:22:37;6.70;99.90
46217;DHT22;47258;59.424;13.482;2023-04-24T03:25:05;6.70;99.90
46217;DHT22;47258;59.424;13.482;2023-04-24T03:27:36;6.70;99.90
46217;DHT22;47258;59.424;13.482;2023-04-24T03:30:05;6.70;99.90
46217;DHT22;47258;59.424;13.482;2023-04-24T03:32:33;6.70;99.90
46217;DHT22;47258;59.424;13.482;2023-04-24T03:35:03;6.70;99.90
46217;DHT22;47258;59.424;13.482;2023-04-24T03:37:34;6.70;99.90
46217;DHT22;47258;59.424;13.482;2023-04-24T03:40:02;6.70;99.90
46217;DHT22;47258;59.424;13.482;2023-04-24T03:42:31;6.70;99.90
46217;DHT22;47258;59.424;13.482;2023-04-24T03:45:00;6.60;99.90
46217;DHT22;47258;59.424;13.482;2023-04-24T03:47:29;6.70;99.90
46217;DHT22;47258;59.424;13.482;2023-04-24T03:49:57;6.60;99.90
46217;DHT22;47258;59.424;13.482;2023-04-24T03:52:26;6.60;99.90
46217;DHT22;47258;59.424;13.482;2023-04-24T03:54:56;6.70;99.90
46217;DHT22;47258;59.424;13.482;2023-04-24T03:57:24;6.60;99.90
46217;DHT22;47258;59.424;13.482;2023-04-24T03:59:53;6.70;99.90
46217;DHT22;47258;59.424;13.482;2023-04-24T04:02:21;6.70;99.90
46217;DHT22;47258;59.424;13.482;2023-04-24T04:04:53;6.70;99.90
46217;DHT22;47258;59.424;13.482;2023-04-24T04:07:21;6.70;99.90
46217;DHT22;47258;59.424;13.482;2023-04-24T04:09:51;6.70;99.90
46217;DHT22;47258;59.424;13.482;2023-04-24T04:12:23;6.70;99.90
46217;DHT22;47258;59.424;13.482;2023-04-24T04:14:51;6.70;99.90
46217;DHT22;47258;59.424;13.482;2023-04-24T04:17:22;6.70;99.90
46217;DHT22;47258;59.424;13.482;2023-04-24T04:19:52;6.70;99.90
46217;DHT22;47258;59.424;13.482;2023-04-24T04:22:19;6.70;99.90
46217;DHT22;47258;59.424;13.482;2023-04-24T04:24:47;6.70;99.90
46217;DHT22;47258;59.424;13.482;2023-04-24T04:27:16;6.70;99.90
46217;DHT22;47258;59.424;13.482;2023-04-24T04:29:48;6.60;99.90
46217;DHT22;47258;59.424;13.482;2023-04-24T04:32:19;6.60;99.90
46217;DHT22;47258;59.424;13.482;2023-04-24T04:34:52;6.60;99.90
46217;DHT22;47258;59.424;13.482;2023-04-24T04:37:20;6.60;99.90
46217;DHT22;47258;59.424;13.482;2023-04-24T04:39:48;6.60;99.90
46217;DHT22;47258;59.424;13.482;2023-04-24T04:42:17;6.50;99.90
46217;DHT22;47258;59.424;13.482;2023-04-24T04:44:46;6.50;99.90
46217;DHT22;47258;59.424;13.482;2023-04-24T04:47:18;6.50;99.90
46217;DHT22;47258;59.424;13.482;2023-04-24T04:49:50;6.40;99.90
46217;DHT22;47258;59.424;13.482;2023-04-24T04:52:19;6.40;99.90
46217;DHT22;47258;59.424;13.482;2023-04-24T04:54:51;6.40;99.90
46217;DHT22;47258;59.424;13.482;2023-04-24T04:57:20;6.40;99.90
46217;DHT22;47258;59.424;13.482;2023-04-24T04:59:48;6.30;99.90
46217;DHT22;47258;59.424;13.482;2023-04-24T05:02:23;6.40;99.90
46217;DHT22;47258;59.424;13.482;2023-04-24T05:04:55;6.30;99.90
46217;DHT22;47258;59.424;13.482;2023-04-24T05:07:26;6.30;99.90
46217;DHT22;47258;59.424;13.482;2023-04-24T05:09:53;6.30;99.90
46217;DHT22;47258;59.424;13.482;2023-04-24T05:12:20;6.30;99.90
46217;DHT22;47258;59.424;13.482;2023-04-24T05:14:51;6.30;99.90
46217;DHT22;47258;59.424;13.482;2023-04-24T05:17:19;6.20;99.90
46217;DHT22;47258;59.424;13.482;2023-04-24T05:19:48;6.20;99.90
46217;DHT22;47258;59.424;13.482;2023-04-24T05:22:16;6.20;99.90
46217;DHT22;47258;59.424;13.482;2023-04-24T05:24:46;6.20;99.90
46217;DHT22;47258;59.424;13.482;2023-04-24T05:27:13;6.20;99.90
46217;DHT22;47258;59.424;13.482;2023-04-24T05:29:41;6.20;99.90
46217;DHT22;47258;59.424;13.482;2023-04-24T05:32:09;6.20;99.90
46217;DHT22;47258;59.424;13.482;2023-04-24T05:34:40;6.20;99.90
46217;DHT22;47258;59.424;13.482;2023-04-24T05:37:09;6.20;99.90
46217;DHT22;47258;59.424;13.482;2023-04-24T05:39:37;6.20;99.90
46217;DHT22;47258;59.424;13.482;2023-04-24T05:42:06;6.20;99.90
46217;DHT22;47258;59.424;13.482;2023-04-24T05:44:36;6.20;99.90
46217;DHT22;47258;59.424;13.482;2023-04-24T05:47:05;6.20;99.90
46217;DHT22;47258;59.424;13.482;2023-04-24T05:49:34;6.20;99.90
46217;DHT22;47258;59.424;13.482;2023-04-24T05:52:04;6.20;99.90
46217;DHT22;47258;59.424;13.482;2023-04-24T05:54:36;6.20;99.90
46217;DHT22;47258;59.424;13.482;2023-04-24T05:57:04;6.20;99.90
46217;DHT22;47258;59.424;13.482;2023-04-24T05:59:36;6.20;99.90
46217;DHT22;47258;59.424;13.482;2023-04-24T06:02:04;6.20;99.90
46217;DHT22;47258;59.424;13.482;2023-04-24T06:04:32;6.20;99.90
46217;DHT22;47258;59.424;13.482;2023-04-24T06:06:59;6.20;99.90
46217;DHT22;47258;59.424;13.482;2023-04-24T06:09:26;6.20;99.90
46217;DHT22;47258;59.424;13.482;2023-04-24T06:11:58;6.20;99.90
46217;DHT22;47258;59.424;13.482;2023-04-24T06:14:27;6.30;99.90
46217;DHT22;47258;59.424;13.482;2023-04-24T06:16:54;6.30;99.90
46217;DHT22;47258;59.424;13.482;2023-04-24T06:19:22;6.30;99.90
46217;DHT22;47258;59.424;13.482;2023-04-24T06:21:51;6.30;99.90
46217;DHT22;47258;59.424;13.482;2023-04-24T06:24:19;6.30;99.90
46217;DHT22;47258;59.424;13.482;2023-04-24T06:26:52;6.40;99.90
46217;DHT22;47258;59.424;13.482;2023-04-24T06:29:27;6.40;99.90
46217;DHT22;47258;59.424;13.482;2023-04-24T06:31:55;6.50;99.90
46217;DHT22;47258;59.424;13.482;2023-04-24T06:34:24;6.50;99.90
46217;DHT22;47258;59.424;13.482;2023-04-24T06:36:52;6.60;99.90
46217;DHT22;47258;59.424;13.482;2023-04-24T06:39:24;6.60;99.90
46217;DHT22;47258;59.424;13.482;2023-04-24T06:41:54;6.60;99.90
46217;DHT22;47258;59.424;13.482;2023-04-24T06:44:28;6.60;99.90
46217;DHT22;47258;59.424;13.482;2023-04-24T06:47:05;6.70;99.90
46217;DHT22;47258;59.424;13.482;2023-04-24T06:49:36;6.70;99.90
46217;DHT22;47258;59.424;13.482;2023-04-24T06:52:06;6.70;99.90
46217;DHT22;47258;59.424;13.482;2023-04-24T06:54:41;6.70;99.90
46217;DHT22;47258;59.424;13.482;2023-04-24T06:57:10;6.80;99.90
46217;DHT22;47258;59.424;13.482;2023-04-24T06:59:40;6.80;99.90
46217;DHT22;47258;59.424;13.482;2023-04-24T07:02:08;6.80;99.90
46217;DHT22;47258;59.424;13.482;2023-04-24T07:04:39;6.90;99.90
46217;DHT22;47258;59.424;13.482;2023-04-24T07:07:12;6.90;99.90
46217;DHT22;47258;59.424;13.482;2023-04-24T07:09:45;6.90;99.90
46217;DHT22;47258;59.424;13.482;2023-04-24T07:12:14;7.00;99.90
46217;DHT22;47258;59.424;13.482;2023-04-24T07:14:46;7.00;99.90
46217;DHT22;47258;59.424;13.482;2023-04-24T07:17:14;7.10;99.90
46217;DHT22;47258;59.424;13.482;2023-04-24T07:19:44;7.10;99.90
46217;DHT22;47258;59.424;13.482;2023-04-24T07:22:12;7.10;99.90
46217;DHT22;47258;59.424;13.482;2023-04-24T07:24:42;7.20;99.90
46217;DHT22;47258;59.424;13.482;2023-04-24T07:27:10;7.20;99.90
46217;DHT22;47258;59.424;13.482;2023-04-24T07:29:37;7.20;99.90
46217;DHT22;47258;59.424;13.482;2023-04-24T07:32:07;7.20;99.90
46217;DHT22;47258;59.424;13.482;2023-04-24T07:34:34;7.20;99.90
46217;DHT22;47258;59.424;13.482;2023-04-24T07:37:02;7.30;99.90
46217;DHT22;47258;59.424;13.482;2023-04-24T07:39:30;7.30;99.90
46217;DHT22;47258;59.424;13.482;2023-04-24T07:41:59;7.30;99.90
46217;DHT22;47258;59.424;13.482;2023-04-24T07:44:27;7.40;99.90
46217;DHT22;47258;59.424;13.482;2023-04-24T07:46:58;7.40;99.90
46217;DHT22;47258;59.424;13.482;2023-04-24T07:49:28;7.40;99.90
46217;DHT22;47258;59.424;13.482;2023-04-24T07:51:56;7.40;99.90
46217;DHT22;47258;59.424;13.482;2023-04-24T07:54:26;7.40;99.90
46217;DHT22;47258;59.424;13.482;2023-04-24T07:56:55;7.40;99.90
46217;DHT22;47258;59.424;13.482;2023-04-24T07:59:25;7.40;99.90
46217;DHT22;47258;59.424;13.482;2023-04-24T08:01:52;7.50;99.90
46217;DHT22;47258;59.424;13.482;2023-04-24T08:04:20;7.50;99.90
46217;DHT22;47258;59.424;13.482;2023-04-24T08:06:49;7.50;99.90
46217;DHT22;47258;59.424;13.482;2023-04-24T08:09:19;7.50;99.90
46217;DHT22;47258;59.424;13.482;2023-04-24T08:11:47;7.50;99.90
46217;DHT22;47258;59.424;13.482;2023-04-24T08:14:15;7.50;99.90
46217;DHT22;47258;59.424;13.482;2023-04-24T08:16:46;7.60;99.90
46217;DHT22;47258;59.424;13.482;2023-04-24T08:19:15;7.60;99.90
46217;DHT22;47258;59.424;13.482;2023-04-24T08:21:42;7.60;99.90
46217;DHT22;47258;59.424;13.482;2023-04-24T08:24:11;7.60;99.90
46217;DHT22;47258;59.424;13.482;2023-04-24T08:26:38;7.60;99.90
46217;DHT22;47258;59.424;13.482;2023-04-24T08:29:07;7.70;99.90
46217;DHT22;47258;59.424;13.482;2023-04-24T08:31:37;7.70;99.90
46217;DHT22;47258;59.424;13.482;2023-04-24T08:34:04;7.70;99.90
46217;DHT22;47258;59.424;13.482;2023-04-24T08:36:33;7.70;99.90
46217;DHT22;47258;59.424;13.482;2023-04-24T08:39:00;7.70;99.90
46217;DHT22;47258;59.424;13.482;2023-04-24T08:41:30;7.70;99.90
46217;DHT22;47258;59.424;13.482;2023-04-24T08:43:58;7.70;99.90
46217;DHT22;47258;59.424;13.482;2023-04-24T08:46:25;7.80;99.90
46217;DHT22;47258;59.424;13.482;2023-04-24T08:48:53;7.80;99.90
46217;DHT22;47258;59.424;13.482;2023-04-24T08:51:24;7.80;99.90
46217;DHT22;47258;59.424;13.482;2023-04-24T08:53:53;7.80;99.90
46217;DHT22;47258;59.424;13.482;2023-04-24T08:56:23;7.80;99.90
46217;DHT22;47258;59.424;13.482;2023-04-24T08:58:53;7.80;99.90
46217;DHT22;47258;59.424;13.482;2023-04-24T09:01:20;7.80;99.90
46217;DHT22;47258;59.424;13.482;2023-04-24T09:03:51;7.90;99.90
46217;DHT22;47258;59.424;13.482;2023-04-24T09:06:23;7.90;99.90
46217;DHT22;47258;59.424;13.482;2023-04-24T09:08:54;7.90;99.90
46217;DHT22;47258;59.424;13.482;2023-04-24T09:11:26;7.90;99.90
46217;DHT22;47258;59.424;13.482;2023-04-24T09:13:57;7.90;99.90
46217;DHT22;47258;59.424;13.482;2023-04-24T09:16:25;7.90;99.90
46217;DHT22;47258;59.424;13.482;2023-04-24T09:18:53;7.90;99.90
46217;DHT22;47258;59.424;13.482;2023-04-24T09:21:21;7.90;99.90
46217;DHT22;47258;59.424;13.482;2023-04-24T09:24:01;8.00;99.90
46217;DHT22;47258;59.424;13.482;2023-04-24T09:26:29;8.00;99.90
46217;DHT22;47258;59.424;13.482;2023-04-24T09:29:00;8.00;99.90
46217;DHT22;47258;59.424;13.482;2023-04-24T09:31:28;8.00;99.90
46217;DHT22;47258;59.424;13.482;2023-04-24T09:33:55;8.00;99.90
46217;DHT22;47258;59.424;13.482;2023-04-24T09:36:27;8.00;99.90
46217;DHT22;47258;59.424;13.482;2023-04-24T09:38:57;8.10;99.90
46217;DHT22;47258;59.424;13.482;2023-04-24T09:41:26;8.10;99.90
46217;DHT22;47258;59.424;13.482;2023-04-24T09:43:54;8.10;99.90
46217;DHT22;47258;59.424;13.482;2023-04-24T09:46:30;8.10;99.90
46217;DHT22;47258;59.424;13.482;2023-04-24T09:49:07;8.20;99.90
46217;DHT22;47258;59.424;13.482;2023-04-24T09:51:37;8.20;99.90
46217;DHT22;47258;59.424;13.482;2023-04-24T09:54:12;8.30;99.90
46217;DHT22;47258;59.424;13.482;2023-04-24T09:56:42;8.30;99.90
46217;DHT22;47258;59.424;13.482;2023-04-24T09:59:11;8.30;99.90
46217;DHT22;47258;59.424;13.482;2023-04-24T10:01:41;8.30;99.90
46217;DHT22;47258;59.424;13.482;2023-04-24T10:04:20;8.30;99.90
46217;DHT22;47258;59.424;13.482;2023-04-24T10:06:48;8.40;99.90
46217;DHT22;47258;59.424;13.482;2023-04-24T10:09:16;8.40;99.90
46217;DHT22;47258;59.424;13.482;2023-04-24T10:11:48;8.50;99.90
46217;DHT22;47258;59.424;13.482;2023-04-24T10:14:17;8.50;99.90
46217;DHT22;47258;59.424;13.482;2023-04-24T10:16:48;8.60;99.90
46217;DHT22;47258;59.424;13.482;2023-04-24T10:19:17;8.60;99.90
46217;DHT22;47258;59.424;13.482;2023-04-24T10:21:48;8.60;99.90
46217;DHT22;47258;59.424;13.482;2023-04-24T10:24:17;8.60;99.90
46217;DHT22;47258;59.424;13.482;2023-04-24T10:26:47;8.70;99.90
46217;DHT22;47258;59.424;13.482;2023-04-24T10:29:16;8.70;99.90
46217;DHT22;47258;59.424;13.482;2023-04-24T10:31:44;8.70;99.90
46217;DHT22;47258;59.424;13.482;2023-04-24T10:34:16;8.70;99.90
46217;DHT22;47258;59.424;13.482;2023-04-24T10:36:48;8.70;99.90
46217;DHT22;47258;59.424;13.482;2023-04-24T10:39:18;8.70;99.90
46217;DHT22;47258;59.424;13.482;2023-04-24T10:41:50;8.70;99.90
46217;DHT22;47258;59.424;13.482;2023-04-24T10:44:18;8.70;99.90
46217;DHT22;47258;59.424;13.482;2023-04-24T10:46:52;8.70;99.90
46217;DHT22;47258;59.424;13.482;2023-04-24T10:49:31;8.60;99.90
46217;DHT22;47258;59.424;13.482;2023-04-24T10:52:00;8.60;99.90
46217;DHT22;47258;59.424;13.482;2023-04-24T10:54:28;8.60;99.90
46217;DHT22;47258;59.424;13.482;2023-04-24T10:59:38;8.60;99.90
46217;DHT22;47258;59.424;13.482;2023-04-24T11:02:07;8.60;99.90
46217;DHT22;47258;59.424;13.482;2023-04-24T11:04:36;8.60;99.90
46217;DHT22;47258;59.424;13.482;2023-04-24T11:07:05;8.60;99.90
46217;DHT22;47258;59.424;13.482;2023-04-24T11:09:34;8.60;99.90
46217;DHT22;47258;59.424;13.482;2023-04-24T11:12:06;8.60;99.90
46217;DHT22;47258;59.424;13.482;2023-04-24T11:17:31;8.60;99.90
46217;DHT22;47258;59.424;13.482;2023-04-24T11:20:03;8.60;99.90
46217;DHT22;47258;59.424;13.482;2023-04-24T11:22:32;8.60;99.90
46217;DHT22;47258;59.424;13.482;2023-04-24T11:25:01;8.60;99.90
46217;DHT22;47258;59.424;13.482;2023-04-24T11:27:30;8.60;99.90
46217;DHT22;47258;59.424;13.482;2023-04-24T11:29:59;8.60;99.90
46217;DHT22;47258;59.424;13.482;2023-04-24T11:32:34;8.60;99.90
46217;DHT22;47258;59.424;13.482;2023-04-24T11:35:08;8.70;99.90
46217;DHT22;47258;59.424;13.482;2023-04-24T11:37:37;8.60;99.90
46217;DHT22;47258;59.424;13.482;2023-04-24T11:40:06;8.70;99.90
46217;DHT22;47258;59.424;13.482;2023-04-24T11:42:34;8.70;99.90
46217;DHT22;47258;59.424;13.482;2023-04-24T11:45:07;8.70;99.90
46217;DHT22;47258;59.424;13.482;2023-04-24T11:47:36;8.70;99.90
46217;DHT22;47258;59.424;13.482;2023-04-24T11:50:07;8.70;99.90
46217;DHT22;47258;59.424;13.482;2023-04-24T11:52:39;8.70;99.90
46217;DHT22;47258;59.424;13.482;2023-04-24T11:55:12;8.70;99.90
46217;DHT22;47258;59.424;13.482;2023-04-24T11:57:54;8.70;99.90
46217;DHT22;47258;59.424;13.482;2023-04-24T12:00:25;8.70;99.90
46217;DHT22;47258;59.424;13.482;2023-04-24T12:03:04;8.70;99.90
46217;DHT22;47258;59.424;13.482;2023-04-24T12:05:39;8.80;99.90
46217;DHT22;47258;59.424;13.482;2023-04-24T12:08:11;8.80;99.90
46217;DHT22;47258;59.424;13.482;2023-04-24T12:10:41;8.80;99.90
46217;DHT22;47258;59.424;13.482;2023-04-24T12:13:15;8.80;99.90
46217;DHT22;47258;59.424;13.482;2023-04-24T12:15:49;8.80;99.90
46217;DHT22;47258;59.424;13.482;2023-04-24T12:18:22;8.80;99.90
46217;DHT22;47258;59.424;13.482;2023-04-24T12:21:01;8.90;99.90
46217;DHT22;47258;59.424;13.482;2023-04-24T12:23:43;8.90;99.90
46217;DHT22;47258;59.424;13.482;2023-04-24T12:26:19;8.90;99.90
46217;DHT22;47258;59.424;13.482;2023-04-24T12:28:52;8.90;99.90
46217;DHT22;47258;59.424;13.482;2023-04-24T12:31:27;8.90;99.90
46217;DHT22;47258;59.424;13.482;2023-04-24T12:33:58;8.90;99.90
46217;DHT22;47258;59.424;13.482;2023-04-24T12:36:38;8.90;99.90
46217;DHT22;47258;59.424;13.482;2023-04-24T12:39:14;8.90;99.90
46217;DHT22;47258;59.424;13.482;2023-04-24T12:41:54;8.90;99.90
46217;DHT22;47258;59.424;13.482;2023-04-24T12:44:30;8.90;99.90
46217;DHT22;47258;59.424;13.482;2023-04-24T12:47:05;8.90;99.90
46217;DHT22;47258;59.424;13.482;2023-04-24T12:49:40;8.80;99.90
46217;DHT22;47258;59.424;13.482;2023-04-24T12:52:16;8.90;99.90
46217;DHT22;47258;59.424;13.482;2023-04-24T12:54:48;8.80;99.90
46217;DHT22;47258;59.424;13.482;2023-04-24T12:57:24;8.80;99.90
46217;DHT22;47258;59.424;13.482;2023-04-24T13:00:02;8.80;99.90
46217;DHT22;47258;59.424;13.482;2023-04-24T13:02:33;8.80;99.90
46217;DHT22;47258;59.424;13.482;2023-04-24T13:05:05;8.80;99.90
46217;DHT22;47258;59.424;13.482;2023-04-24T13:07:48;8.80;99.90
46217;DHT22;47258;59.424;13.482;2023-04-24T13:10:19;8.80;99.90
46217;DHT22;47258;59.424;13.482;2023-04-24T13:12:50;8.80;99.90
46217;DHT22;47258;59.424;13.482;2023-04-24T13:15:20;8.70;99.90
46217;DHT22;47258;59.424;13.482;2023-04-24T13:17:48;8.80;99.90
46217;DHT22;47258;59.424;13.482;2023-04-24T13:20:20;8.70;99.90
46217;DHT22;47258;59.424;13.482;2023-04-24T13:22:56;8.70;99.90
46217;DHT22;47258;59.424;13.482;2023-04-24T13:25:27;8.70;99.90
46217;DHT22;47258;59.424;13.482;2023-04-24T13:27:58;8.70;99.90
46217;DHT22;47258;59.424;13.482;2023-04-24T13:30:26;8.60;99.90
46217;DHT22;47258;59.424;13.482;2023-04-24T13:32:57;8.60;99.90
46217;DHT22;47258;59.424;13.482;2023-04-24T13:35:25;8.60;99.90
46217;DHT22;47258;59.424;13.482;2023-04-24T13:37:54;8.60;99.90
46217;DHT22;47258;59.424;13.482;2023-04-24T13:40:24;8.60;99.90
46217;DHT22;47258;59.424;13.482;2023-04-24T13:42:53;8.60;99.90
46217;DHT22;47258;59.424;13.482;2023-04-24T13:45:23;8.60;99.90
46217;DHT22;47258;59.424;13.482;2023-04-24T13:47:55;8.50;99.90
46217;DHT22;47258;59.424;13.482;2023-04-24T13:50:27;8.50;99.90
46217;DHT22;47258;59.424;13.482;2023-04-24T13:53:01;8.50;99.90
46217;DHT22;47258;59.424;13.482;2023-04-24T13:55:31;8.50;99.90
46217;DHT22;47258;59.424;13.482;2023-04-24T13:58:04;8.50;99.90
46217;DHT22;47258;59.424;13.482;2023-04-24T14:00:34;8.50;99.90
46217;DHT22;47258;59.424;13.482;2023-04-24T14:03:06;8.50;99.90
46217;DHT22;47258;59.424;13.482;2023-04-24T14:05:36;8.50;99.90
46217;DHT22;47258;59.424;13.482;2023-04-24T14:08:12;8.50;99.90
46217;DHT22;47258;59.424;13.482;2023-04-24T14:10:40;8.50;99.90
46217;DHT22;47258;59.424;13.482;2023-04-24T14:13:09;8.50;99.90
46217;DHT22;47258;59.424;13.482;2023-04-24T14:15:39;8.50;99.90
46217;DHT22;47258;59.424;13.482;2023-04-24T14:18:11;8.40;99.90
46217;DHT22;47258;59.424;13.482;2023-04-24T14:20:41;8.40;99.90
46217;DHT22;47258;59.424;13.482;2023-04-24T14:23:13;8.50;99.90
46217;DHT22;47258;59.424;13.482;2023-04-24T14:25:43;8.40;99.90
46217;DHT22;47258;59.424;13.482;2023-04-24T14:28:18;8.40;99.90
46217;DHT22;47258;59.424;13.482;2023-04-24T14:30:49;8.40;99.90
46217;DHT22;47258;59.424;13.482;2023-04-24T14:33:19;8.40;99.90
46217;DHT22;47258;59.424;13.482;2023-04-24T14:35:48;8.40;99.90
46217;DHT22;47258;59.424;13.482;2023-04-24T14:38:20;8.50;99.90
46217;DHT22;47258;59.424;13.482;2023-04-24T14:40:49;8.50;99.90
46217;DHT22;47258;59.424;13.482;2023-04-24T14:43:22;8.50;99.90
46217;DHT22;47258;59.424;13.482;2023-04-24T14:45:58;8.50;99.90
46217;DHT22;47258;59.424;13.482;2023-04-24T14:48:30;8.60;99.90
46217;DHT22;47258;59.424;13.482;2023-04-24T14:51:00;8.60;99.90
46217;DHT22;47258;59.424;13.482;2023-04-24T14:53:33;8.70;99.90
46217;DHT22;47258;59.424;13.482;2023-04-24T14:56:09;8.70;99.90
46217;DHT22;47258;59.424;13.482;2023-04-24T14:58:39;8.70;99.90
46217;DHT22;47258;59.424;13.482;2023-04-24T15:01:12;8.70;99.90
46217;DHT22;47258;59.424;13.482;2023-04-24T15:03:44;8.70;99.90
46217;DHT22;47258;59.424;13.482;2023-04-24T15:06:15;8.80;99.90
46217;DHT22;47258;59.424;13.482;2023-04-24T15:08:49;8.80;99.90
46217;DHT22;47258;59.424;13.482;2023-04-24T15:11:20;8.80;99.90
46217;DHT22;47258;59.424;13.482;2023-04-24T15:13:50;8.80;99.90
46217;DHT22;47258;59.424;13.482;2023-04-24T15:16:22;8.80;99.90
46217;DHT22;47258;59.424;13.482;2023-04-24T15:18:51;8.80;99.90
46217;DHT22;47258;59.424;13.482;2023-04-24T15:21:20;8.90;99.90
46217;DHT22;47258;59.424;13.482;2023-04-24T15:23:54;8.90;99.90
46217;DHT22;47258;59.424;13.482;2023-04-24T15:26:25;8.90;99.90
46217;DHT22;47258;59.424;13.482;2023-04-24T15:29:00;8.90;99.90
46217;DHT22;47258;59.424;13.482;2023-04-24T15:31:33;8.90;99.90
46217;DHT22;47258;59.424;13.482;2023-04-24T15:34:07;8.90;99.90
46217;DHT22;47258;59.424;13.482;2023-04-24T15:36:38;8.80;99.90
46217;DHT22;47258;59.424;13.482;2023-04-24T15:39:22;8.80;99.90
46217;DHT22;47258;59.424;13.482;2023-04-24T15:41:51;8.90;99.90
46217;DHT22;47258;59.424;13.482;2023-04-24T15:44:20;8.80;99.90
46217;DHT22;47258;59.424;13.482;2023-04-24T15:46:51;8.90;99.90
46217;DHT22;47258;59.424;13.482;2023-04-24T15:49:20;8.80;99.90
46217;DHT22;47258;59.424;13.482;2023-04-24T15:51:52;8.90;99.90
46217;DHT22;47258;59.424;13.482;2023-04-24T15:54:23;8.90;99.90